Flag for Germany

Past Weather in 53°53'58.5"N, 11°27'27.9"E, Germany — Yesterday and Last 2 Weeks

Currently: 73 °F. Scattered clouds. (Weather station: Luebeck-Blankensee, Germany). See more current weather

Past Weather in 53°53'58.5"N, 11°27'27.9"E — Graph

°F

53°53'58.5"N, 11°27'27.9"E Temperature Yesterday

Maximum temperature yesterday: 72 °F (at 5:20 pm)
Minimum temperature yesterday: 54 °F (at 2:50 am)
Average temperature yesterday: 63 °F

High & Low Weather Summary for the Past Weeks

 TemperatureHumidityPressure
High77 °F (Jun 21, 1:50 pm)100% (Jun 10, 11:50 pm)30.21 "Hg (Jun 10, 11:50 pm)
Low45 °F (Jun 13, 4:20 am)40% (Jun 14, 2:20 pm)29.56 "Hg (Jun 15, 6:50 am)
Average59 °F76%29.90 "Hg
* Reported Jun 9 2:20 pm — Jun 24 2:20 pm, 53°53'58.5"N, 11°27'27.9"E. Weather by CustomWeather, © 2024

Note: Actual official high and low records may vary slightly from our data, if they occured in-between our weather recording intervals... More about our weather records

53°53'58.5"N, 11°27'27.9"E Weather History for the Previous 24 Hours

Scroll right to see more
 ConditionsComfort  
Time TempWeatherWind HumidityBarometerVisibility
2:20 pm
Mon, Jun 24
72 °FPassing clouds.5 mph53%30.15 "HgN/A
1:50 pm70 °FScattered clouds.3 mph57%30.15 "HgN/A
1:20 pm72 °FScattered clouds.5 mph53%30.15 "HgN/A
12:50 pm72 °FPartly sunny.2 mph57%30.15 "HgN/A
12:20 pm70 °FPassing clouds.5 mph60%30.15 "HgN/A
11:50 am70 °FPassing clouds.5 mph64%30.15 "HgN/A
11:20 am66 °FScattered clouds.5 mph64%30.15 "HgN/A
10:50 am68 °FPassing clouds.3 mph64%30.15 "HgN/A
10:20 am66 °FPassing clouds.5 mph68%30.15 "HgN/A
9:50 am66 °FPassing clouds.2 mph64%30.15 "HgN/A
9:20 am66 °FPassing clouds.1 mph68%30.15 "HgN/A
8:50 am64 °FPassing clouds.2 mph78%30.15 "HgN/A
8:20 am61 °FPassing clouds.2 mph88%30.15 "HgN/A
7:50 am59 °FPassing clouds.3 mph88%30.15 "HgN/A
7:20 am57 °FPassing clouds.5 mph94%30.15 "HgN/A
6:50 am57 °FSunny.2 mph94%30.15 "Hg10 mi
6:20 am55 °FSunny.2 mph94%30.15 "Hg10 mi
5:50 am54 °FSunny.1 mph100%30.15 "Hg10 mi
5:20 am52 °FPassing clouds.No wind94%30.12 "HgN/A
4:50 am50 °FSunny.1 mph94%30.12 "HgN/A
4:20 am52 °FPassing clouds.2 mph94%30.12 "HgN/A
3:50 am52 °FPassing clouds.1 mph94%30.12 "HgN/A
3:20 am52 °FPassing clouds.1 mph94%30.12 "HgN/A
2:50 am52 °FPassing clouds.1 mph94%30.12 "HgN/A
2:20 am52 °FPassing clouds.1 mph100%30.12 "HgN/A
1:50 am52 °FClear.No wind94%30.12 "HgN/A
1:20 am54 °FClear.2 mph94%30.12 "HgN/A
12:50 am54 °FClear.1 mph94%30.12 "HgN/A
12:20 am55 °FPassing clouds.1 mph88%30.12 "HgN/A
11:50 pm
Sun, Jun 23
55 °FPassing clouds.1 mph88%30.12 "HgN/A
11:20 pm57 °FPassing clouds.No wind82%30.12 "HgN/A
10:50 pm57 °FPassing clouds.3 mph82%30.12 "HgN/A
9:50 pm63 °FSunny.5 mph68%30.12 "HgN/A
8:50 pm66 °FPassing clouds.6 mph60%30.09 "HgN/A
8:20 pm68 °FPassing clouds.7 mph56%30.09 "HgN/A
7:50 pm68 °FPassing clouds.10 mph56%30.09 "HgN/A
7:20 pm70 °FPassing clouds.10 mph53%30.09 "HgN/A
6:50 pm70 °FPassing clouds.13 mph53%30.09 "HgN/A
6:20 pm70 °FPassing clouds.13 mph50%30.07 "HgN/A
5:50 pm72 °FPassing clouds.14 mph50%30.07 "HgN/A
5:20 pm72 °FScattered clouds.13 mph50%30.07 "HgN/A
4:20 pm70 °FPassing clouds.9 mph60%30.07 "HgN/A
Weather by CustomWeather, © 2024

See weather overview